Stockholm, Sweden

11:10 AM CEST on April 21, 2015 (GMT +0200)
Bromma | | Change Station
CLOSE
Current Station
Airport
Location: Stockholm Bromma,
Elevation: 46 ft
Nearby Weather Stations

Elev 46 ft 59.37 °N, 17.90 °E | Updated 20 minutes ago

Partly Cloudy
Partly Cloudy
50 °F
Feels Like 50 °F
N
10
Wind Variable Wind from NNW

Today
High -- | Low -- °F
--% Chance of Precip.
Yesterday
High -- | Low -- °F
Precip. -- in
5:17 AM 8:17 PM
Waxing Crescent, 9% visible
Pressure 30.24 in
Visibility 6.2 miles
Clouds Few 3600 ft
Dew Point 32 °F
Humidity 50%
Rainfall 0.00 in
Snow Depth Not available.
UV 4 out of 12
Pollen Not available.
Air Quality Not available.
Flu Activity Not available.
METAR ESSB 210850Z 34009KT 310V030 9999 FEW036 10/00 Q1024

More Conditions Fewer Conditions

Pressure 30.24 in
Visibility 6.2 miles
Clouds Few 3600 ft
Dew Point 32 °F
Humidity 50%
Rainfall 0.00 in
Snow Depth Not available.
UV 4 out of 12
Pollen Not available.
Air Quality Not available.
Flu Activity Not available.
METAR ESSB 210850Z 34009KT 310V030 9999 FEW036 10/00 Q1024

More Conditions Fewer Conditions

10-Day Weather Forecast

Almanac

Astronomy

Apr. 21, 2015 Rise Set
Actual Time
Civil Twilight
Nautical Twilight
Astronomical Twilight
Moon
Length of Visible Light
Length of Day
Tomorrow will be .
, % of the Moon is Illuminated

Today's Extremes

Country Highs Country Lows

Community

WunderPhotos

Upload Photos

1,815,329 photos uploaded!

WunderBlogs® & News

Nearby

Air Quality

  Air Quality AQ Index Pollutant
Not available.

Snow Depth

Station Depth Elevation

Earthquake Activity

City Distance Mag. Time & Date
Minimum magnitude displayed is 2.5.

Coastal Water Temperatures

Place Temperature

Stations

Nearby Weather Stations

Station Location Temp. Windchill Dew Point Humidity Wind Precip. Elev Updated Type